Time;durP1;ratioP1;P1;durP2;ratioP2;P2;SDS_P1;SDS_P2;PMS_P1;PMS_P2;Temp;Humidity;BMP_temperature;BMP_pressure;BME280_temperature;BME280_humidity;BME280_pressure;Samples;Min_cycle;Max_cycle;Signal;HPM_P1;HPM_P2
2021/07/01 00:01:53;;;;;;;20.95;8.05;;;;;;;20.40;78.28;95026.70;1832271;78;21015;-59
2021/07/01 00:04:21;;;;;;;15.75;8.65;;;;;;;20.30;78.67;95012.56;1832597;78;21055;-58
2021/07/01 00:06:48;;;;;;;15.10;6.95;;;;;;;20.23;79.06;95006.38;1832348;78;21008;-58
2021/07/01 00:09:17;;;;;;;15.23;7.83;;;;;;;20.10;79.07;94997.80;1832184;78;21580;-59
2021/07/01 00:11:46;;;;;;;13.95;7.65;;;;;;;20.00;78.82;95004.72;1832332;78;21039;-58
2021/07/01 00:14:18;;;;;;;16.67;7.03;;;;;;;19.93;79.72;95023.96;1832318;78;20991;-58
2021/07/01 00:16:43;;;;;;;13.60;6.40;;;;;;;19.88;80.17;95030.49;1832220;78;20952;-58
2021/07/01 00:19:10;;;;;;;15.43;6.70;;;;;;;19.88;80.65;95042.99;1832400;78;21516;-58
2021/07/01 00:21:36;;;;;;;8.75;5.80;;;;;;;19.94;80.54;95069.87;1832262;78;21051;-59
2021/07/01 00:24:04;;;;;;;11.68;5.50;;;;;;;19.95;80.04;95121.13;1832175;78;20956;-58
2021/07/01 00:26:31;;;;;;;11.22;5.00;;;;;;;19.95;80.57;95143.88;1832592;78;21035;-58
2021/07/01 00:28:58;;;;;;;9.35;3.37;;;;;;;19.91;78.53;95193.21;1832047;78;21091;-59
2021/07/01 00:46:03;;;;;;;8.28;3.60;;;;;;;17.38;82.08;95386.50;1808864;78;23081;-59
2021/07/01 00:48:30;;;;;;;10.55;3.60;;;;;;;17.03;83.60;95376.20;1779912;81;21504;-59
2021/07/01 00:50:57;;;;;;;6.42;3.22;;;;;;;16.80;84.38;95346.16;1779982;81;21528;-59
2021/07/01 00:53:24;;;;;;;6.03;3.27;;;;;;;16.78;84.17;95332.07;1780237;80;21002;-59
2021/07/01 00:55:50;;;;;;;7.33;3.20;;;;;;;16.74;85.10;95308.27;1779774;81;21508;-59
2021/07/01 00:58:19;;;;;;;7.97;3.72;;;;;;;16.70;84.30;95294.69;1780143;81;21035;-59
2021/07/01 01:03:25;;;;;;;9.20;3.90;;;;;;;16.75;86.86;95270.02;1751898;81;20995;-59
2021/07/01 01:05:52;;;;;;;6.53;4.15;;;;;;;16.81;87.93;95274.64;1779739;81;21011;-59
2021/07/01 01:08:18;;;;;;;8.65;4.10;;;;;;;16.78;88.36;95276.13;1779953;81;20987;-59
2021/07/01 01:10:45;;;;;;;5.42;3.35;;;;;;;16.81;87.75;95283.96;1780318;80;20983;-59
2021/07/01 01:13:24;;;;;;;9.55;3.50;;;;;;;16.81;86.79;95294.62;1770638;81;21046;-59
2021/07/01 01:15:57;;;;;;;;;;;;;;;16.75;87.06;95290.86;1779320;81;21493;-59
2021/07/01 01:18:25;;;;;;;4.03;2.90;;;;;;;16.75;87.96;95280.68;1780002;81;20120;-59
2021/07/01 01:20:58;;;;;;;8.55;3.00;;;;;;;16.77;87.11;95293.47;1780143;81;21058;-59
2021/07/01 01:23:25;;;;;;;7.37;3.65;;;;;;;16.79;87.45;95288.97;1779947;80;20995;-59
2021/07/01 01:25:59;;;;;;;8.68;3.80;;;;;;;16.79;86.89;95304.95;1779876;81;21103;-59
2021/07/01 01:28:28;;;;;;;10.35;3.62;;;;;;;16.82;87.54;95281.67;1779531;81;20979;-59
2021/07/01 01:30:56;;;;;;;6.37;3.40;;;;;;;16.87;87.77;95265.47;1751861;81;21472;-59
2021/07/01 01:33:25;;;;;;;9.60;3.52;;;;;;;16.81;86.88;95279.11;1780032;81;21480;-59
2021/07/01 01:35:52;;;;;;;9.05;3.90;;;;;;;16.89;87.03;95265.41;1779466;81;21031;-59
2021/07/01 01:38:20;;;;;;;5.37;3.50;;;;;;;16.93;87.71;95255.83;1780062;81;20990;-59
2021/07/01 01:40:50;;;;;;;5.12;3.42;;;;;;;16.99;87.24;95246.22;1780012;81;21058;-59
2021/07/01 01:43:19;;;;;;;5.83;3.27;;;;;;;17.04;87.30;95261.99;1780051;81;21034;-59
2021/07/01 01:45:47;;;;;;;8.35;3.30;;;;;;;17.06;87.26;95235.66;1784148;80;21065;-59
2021/07/01 01:48:15;;;;;;;6.62;3.33;;;;;;;17.08;87.45;95248.89;1784952;80;21023;-59
2021/07/01 01:50:43;;;;;;;9.53;3.27;;;;;;;17.07;87.27;95246.70;1784574;80;21043;-59
2021/07/01 01:53:11;;;;;;;10.53;3.80;;;;;;;17.02;87.84;95221.22;1785247;80;21015;-59
2021/07/01 01:55:38;;;;;;;7.62;4.05;;;;;;;16.97;88.12;95192.13;1784976;80;21046;-59
2021/07/01 01:58:06;;;;;;;5.25;2.98;;;;;;;17.08;88.68;95181.80;1784493;80;21065;-59
2021/07/01 02:00:52;;;;;;;5.70;2.90;;;;;;;17.06;87.50;95178.83;1785195;80;21049;-59
2021/07/01 02:03:19;;;;;;;6.67;3.30;;;;;;;17.07;86.92;95208.52;1784537;80;21026;-59
2021/07/01 02:06:05;;;;;;;6.67;3.10;;;;;;;16.98;86.52;95222.30;1784508;80;20982;-59
2021/07/01 02:08:33;;;;;;;13.15;3.70;;;;;;;16.86;87.17;95205.99;1785035;80;21010;-59
2021/07/01 02:11:01;;;;;;;6.75;3.58;;;;;;;16.90;87.93;95204.50;1784956;80;21508;-59
2021/07/01 02:13:28;;;;;;;6.22;3.12;;;;;;;16.97;88.02;95225.92;1784610;80;21030;-59
2021/07/01 02:15:57;;;;;;;9.83;3.47;;;;;;;17.02;87.29;95226.55;1749344;80;21054;-59
2021/07/01 02:18:24;;;;;;;5.05;3.17;;;;;;;17.04;87.26;95218.88;1784431;80;21030;-59
2021/07/01 02:20:51;;;;;;;8.90;3.08;;;;;;;17.00;88.00;95209.77;1784977;80;20955;-59
2021/07/01 02:23:19;;;;;;;7.17;2.92;;;;;;;16.98;87.39;95207.64;1785138;80;21014;-59
2021/07/01 02:25:46;;;;;;;6.37;3.35;;;;;;;16.93;87.48;95198.54;1784845;80;21033;-59
2021/07/01 02:28:15;;;;;;;6.00;2.98;;;;;;;16.96;87.75;95187.75;1783476;80;20999;-59
2021/07/01 02:30:43;;;;;;;7.83;3.50;;;;;;;17.00;87.78;95171.13;1784774;80;21046;-59
2021/07/01 02:33:10;;;;;;;4.60;3.17;;;;;;;17.03;87.23;95168.30;1784532;80;21061;-59
2021/07/01 02:35:37;;;;;;;6.50;3.40;;;;;;;17.02;87.02;95165.25;1784610;80;21022;-59
2021/07/01 02:38:22;;;;;;;6.85;3.95;;;;;;;16.99;88.23;95152.09;1784878;80;21046;-62
2021/07/01 02:40:50;;;;;;;6.58;3.77;;;;;;;17.03;88.64;95149.19;1784359;80;21058;-59
2021/07/01 02:43:17;;;;;;;6.97;3.90;;;;;;;17.05;88.91;95149.95;1784653;80;21033;-59
2021/07/01 02:45:45;;;;;;;5.15;3.58;;;;;;;17.06;87.63;95151.70;1777247;80;21066;-59
2021/07/01 02:48:14;;;;;;;5.05;3.40;;;;;;;16.98;88.02;95137.02;1779512;81;21057;-59
2021/07/01 02:50:43;;;;;;;6.25;3.85;;;;;;;16.99;88.25;95130.77;1779283;81;21031;-59
2021/07/01 02:53:11;;;;;;;7.50;3.62;;;;;;;16.97;88.75;95121.98;1779312;81;21006;-59
2021/07/01 02:55:38;;;;;;;7.40;3.83;;;;;;;17.05;88.41;95113.97;1779629;81;21034;-59
2021/07/01 02:58:05;;;;;;;5.53;3.55;;;;;;;17.03;87.45;95107.87;1779083;81;21043;-59
2021/07/01 03:00:33;;;;;;;7.60;3.50;;;;;;;17.05;87.46;95101.12;1778907;81;21011;-59
2021/07/01 03:03:00;;;;;;;12.80;3.83;;;;;;;17.06;87.80;95094.86;1779221;80;21003;-59
2021/07/01 03:05:35;;;;;;;4.42;3.90;;;;;;;17.09;87.88;95088.89;1776253;81;21062;-59
2021/07/01 03:08:02;;;;;;;5.05;3.10;;;;;;;17.23;87.70;95085.96;1779361;81;21011;-59
2021/07/01 03:10:29;;;;;;;7.50;3.45;;;;;;;17.31;87.37;95089.08;1779196;81;21501;-59
2021/07/01 03:12:59;;;;;;;6.08;3.80;;;;;;;17.32;86.90;95105.48;1779534;81;21456;-59
2021/07/01 03:15:26;;;;;;;6.70;3.60;;;;;;;17.24;86.74;95108.55;1779458;81;21026;-59
2021/07/01 03:17:53;;;;;;;6.37;3.37;;;;;;;17.13;86.43;95108.23;1779300;81;21062;-59
2021/07/01 03:20:22;;;;;;;4.97;3.40;;;;;;;17.13;86.43;95108.23;1778354;81;21018;-59
2021/07/01 03:23:07;;;;;;;5.15;3.45;;;;;;;17.08;86.61;95117.83;1779559;81;21031;-59
2021/07/01 03:25:34;;;;;;;11.48;4.20;;;;;;;17.03;86.42;95134.98;1779291;81;21580;-59
2021/07/01 03:28:00;;;;;;;8.58;3.87;;;;;;;16.89;87.64;95141.03;1779387;81;21034;-59
2021/07/01 03:30:27;;;;;;;7.92;3.75;;;;;;;16.96;88.69;95146.44;1779122;81;21540;-59
2021/07/01 03:32:54;;;;;;;4.03;3.35;;;;;;;16.94;87.88;95151.45;1779431;81;21031;-59
2021/07/01 03:35:21;;;;;;;6.10;2.90;;;;;;;16.91;87.90;95160.47;1751193;81;21476;-59
2021/07/01 03:38:07;;;;;;;6.47;3.10;;;;;;;16.92;87.50;95167.98;1779336;80;21543;-59
2021/07/01 03:40:35;;;;;;;4.72;3.90;;;;;;;16.94;88.32;95168.78;1776495;81;21023;-59
2021/07/01 03:43:02;;;;;;;6.25;3.87;;;;;;;17.03;88.50;95176.29;1779114;81;21019;-59
2021/07/01 03:45:31;;;;;;;6.92;2.70;;;;;;;17.07;87.81;95184.53;1779365;80;21054;-59
2021/07/01 03:47:58;;;;;;;4.10;3.00;;;;;;;17.10;87.13;95193.70;1779073;81;20980;-59
2021/07/01 03:50:25;;;;;;;3.10;2.62;;;;;;;17.12;87.57;95201.16;1778954;81;20999;-59
2021/07/01 03:52:52;;;;;;;6.03;2.52;;;;;;;17.13;87.31;95209.53;1779378;80;20976;-59
2021/07/01 03:55:19;;;;;;;5.03;2.90;;;;;;;17.08;87.05;95215.13;1779402;81;20991;-59
2021/07/01 03:57:46;;;;;;;7.12;2.37;;;;;;;17.07;87.53;95220.05;1779099;81;21015;-59
2021/07/01 04:00:15;;;;;;;5.83;2.37;;;;;;;17.20;88.23;95222.09;1779331;81;21011;-59
2021/07/01 04:02:52;;;;;;;5.78;3.08;;;;;;;17.22;88.68;95223.74;1778957;80;21011;-59
2021/07/01 04:05:20;;;;;;;6.75;3.83;;;;;;;17.18;88.51;95214.16;1778859;81;21548;-59
2021/07/01 04:07:48;;;;;;;3.05;2.02;;;;;;;17.24;88.76;95214.34;1779087;81;21023;-59
2021/07/01 04:10:17;;;;;;;4.30;2.22;;;;;;;17.30;87.89;95216.20;1779093;81;20997;-59
2021/07/01 04:12:48;;;;;;;2.22;2.02;;;;;;;17.32;87.14;95231.29;1779373;81;21552;-59
2021/07/01 04:15:33;;;;;;;4.33;2.77;;;;;;;17.34;87.06;95232.05;1779066;81;21018;-59
2021/07/01 04:18:14;;;;;;;4.92;2.50;;;;;;;17.41;87.91;95235.69;1734241;81;21011;-59
2021/07/01 04:21:00;;;;;;;4.15;1.90;;;;;;;17.49;87.54;95244.16;1779308;81;21588;-59
2021/07/01 04:23:45;;;;;;;2.20;1.70;;;;;;;17.57;87.34;95250.91;1778905;81;21066;-59
2021/07/01 04:26:24;;;;;;;5.10;2.00;;;;;;;17.64;86.61;95258.51;1749604;81;21460;-59
2021/07/01 04:28:51;;;;;;;3.42;1.95;;;;;;;17.74;86.37;95266.42;1779746;80;21030;-59
2021/07/01 04:31:20;;;;;;;7.03;2.10;;;;;;;17.73;85.21;95267.83;1779045;81;21014;-59
2021/07/01 04:33:51;;;;;;;;;;;;;;;17.71;85.41;95270.59;1782205;81;21035;-59
2021/07/01 04:36:18;;;;;;;3.72;1.67;;;;;;;17.99;85.80;95277.16;1779194;81;20104;-59
2021/07/01 04:38:46;;;;;;;3.45;1.60;;;;;;;17.99;85.80;95277.16;1779387;81;21053;-59
2021/07/01 04:41:19;;;;;;;1.90;1.67;;;;;;;18.08;85.56;95259.33;1778971;81;21058;-59
2021/07/01 04:43:43;;;;;;;2.77;1.87;;;;;;;18.25;85.41;95286.95;1779088;81;21079;-59
2021/07/01 04:46:09;;;;;;;3.20;1.75;;;;;;;18.28;84.13;95297.47;1782259;80;21022;-59
2021/07/01 04:48:36;;;;;;;5.42;1.60;;;;;;;18.29;84.34;95293.36;1784590;80;21014;-59
2021/07/01 04:51:03;;;;;;;4.53;1.80;;;;;;;18.27;83.68;95302.39;1784944;80;21456;-59
2021/07/01 04:53:48;;;;;;;5.65;2.20;;;;;;;18.24;84.75;95290.55;1784336;80;21007;-59
2021/07/01 04:56:45;;;;;;;3.02;1.90;;;;;;;18.28;84.87;95274.77;1784886;80;21052;-59
2021/07/01 04:59:19;;;;;;;4.17;1.87;;;;;;;18.45;85.09;95274.71;1784925;80;21007;-59
2021/07/01 05:02:00;;;;;;;3.98;2.08;;;;;;;18.51;84.43;95285.53;1780782;80;21015;-59
2021/07/01 05:04:38;;;;;;;2.98;1.87;;;;;;;18.62;83.84;95293.80;1783178;80;21046;-59
2021/07/01 05:07:05;;;;;;;4.05;2.30;;;;;;;18.71;83.77;95297.31;1784612;80;21011;-60
2021/07/01 05:09:33;;;;;;;2.72;2.20;;;;;;;18.80;82.71;95300.86;1784871;80;21488;-59
2021/07/01 05:12:01;;;;;;;5.37;2.20;;;;;;;18.85;82.72;95295.27;1783921;80;20967;-59
2021/07/01 05:14:29;;;;;;;3.42;2.30;;;;;;;18.90;82.79;95301.22;1784271;80;21050;-59
2021/07/01 05:16:55;;;;;;;3.55;2.52;;;;;;;18.87;82.97;95301.84;1784949;80;21034;-59
2021/07/01 05:19:22;;;;;;;7.35;2.67;;;;;;;18.92;82.56;95301.97;1784578;80;20991;-59
2021/07/01 05:21:50;;;;;;;4.65;3.52;;;;;;;18.97;81.79;95305.24;1783821;80;21536;-59
2021/07/01 05:24:36;;;;;;;6.70;3.20;;;;;;;18.98;81.47;95302.12;1784690;80;21062;-59
2021/07/01 05:27:21;;;;;;;5.70;3.40;;;;;;;18.97;81.72;95303.91;1784910;80;21499;-59
2021/07/01 05:30:03;;;;;;;3.67;2.98;;;;;;;19.02;81.89;95307.66;1780303;80;21134;-59
2021/07/01 05:32:50;;;;;;;5.95;3.77;;;;;;;19.00;80.36;95311.78;1708327;83;21071;-59
2021/07/01 05:35:18;;;;;;;6.67;3.47;;;;;;;18.99;81.42;95306.02;1707624;84;21033;-59
2021/07/01 05:37:50;;;;;;;7.28;3.50;;;;;;;19.05;81.22;95309.30;1738556;80;20967;-59
2021/07/01 05:40:20;;;;;;;9.28;3.60;;;;;;;19.05;81.52;95310.19;1784696;80;21069;-59
2021/07/01 05:42:46;;;;;;;9.78;3.72;;;;;;;19.19;81.57;95304.04;1784602;80;21014;-59
2021/07/01 05:45:13;;;;;;;2.90;2.55;;;;;;;19.36;81.36;95311.11;1784592;80;21035;-59
2021/07/01 05:47:41;;;;;;;4.62;2.75;;;;;;;19.37;79.19;95311.48;1784848;80;21062;-59
2021/07/01 05:50:11;;;;;;;5.25;2.60;;;;;;;19.39;79.62;95309.10;1784624;80;21469;-59
2021/07/01 05:52:43;;;;;;;7.55;2.42;;;;;;;19.42;78.29;95306.72;1784923;80;21477;-59
2021/07/01 05:55:11;;;;;;;8.35;2.45;;;;;;;19.52;78.21;95302.56;1785399;80;21085;-59
2021/07/01 05:57:39;;;;;;;4.72;2.55;;;;;;;19.70;78.76;95291.76;1785042;80;21507;-59
2021/07/01 06:00:09;;;;;;;5.53;2.37;;;;;;;20.02;78.63;95287.16;1785110;80;21468;-59
2021/07/01 06:02:37;;;;;;;3.67;2.05;;;;;;;20.13;77.63;95286.49;1783422;80;21508;-59
2021/07/01 06:05:06;;;;;;;5.30;2.42;;;;;;;20.11;75.70;95283.93;1784941;80;21366;-59
2021/07/01 06:07:45;;;;;;;4.42;2.25;;;;;;;20.28;76.66;95283.72;1753772;80;21073;-59
2021/07/01 06:10:17;;;;;;;3.70;2.08;;;;;;;20.56;76.80;95279.84;1784803;80;21058;-59
2021/07/01 06:12:45;;;;;;;3.75;2.40;;;;;;;20.71;76.03;95268.14;1784982;80;21034;-59
2021/07/01 06:15:12;;;;;;;3.17;2.50;;;;;;;20.71;74.54;95268.14;1784897;80;21030;-59
2021/07/01 06:17:39;;;;;;;3.95;2.50;;;;;;;20.70;74.26;95277.16;1784390;80;21524;-59
2021/07/01 06:20:09;;;;;;;3.65;2.62;;;;;;;20.65;73.38;95276.59;1784610;80;21026;-59
2021/07/01 06:22:36;;;;;;;6.10;2.67;;;;;;;20.63;73.97;95270.46;1784956;80;21023;-59
2021/07/01 06:25:06;;;;;;;5.10;2.92;;;;;;;20.62;74.67;95276.80;1784955;80;21018;-59
2021/07/01 06:27:37;;;;;;;4.33;2.95;;;;;;;20.66;74.76;95272.94;1785151;80;21055;-59
2021/07/01 06:30:21;;;;;;;7.10;2.62;;;;;;;20.67;74.32;95266.16;1784924;80;20983;-59
2021/07/01 06:32:52;;;;;;;4.50;2.95;;;;;;;20.70;74.71;95253.89;1784644;80;21026;-59
2021/07/01 06:35:25;;;;;;;5.60;2.85;;;;;;;20.64;74.44;95254.30;1784770;80;21670;-59
2021/07/01 06:37:58;;;;;;;4.28;2.80;;;;;;;20.61;74.15;95242.40;1758513;80;21014;-59
2021/07/01 06:40:47;;;;;;;3.83;3.05;;;;;;;20.61;74.14;95246.91;1785091;80;21492;-59
2021/07/01 06:43:31;;;;;;;5.03;3.62;;;;;;;20.50;73.57;95240.86;1722209;83;21035;-59
2021/07/01 06:46:19;;;;;;;6.65;3.05;;;;;;;20.49;75.59;95242.69;1771773;80;21501;-59
2021/07/01 06:49:05;;;;;;;4.12;2.83;;;;;;;20.53;74.79;95245.53;1784665;80;21003;-59
2021/07/01 06:51:52;;;;;;;5.20;2.98;;;;;;;20.80;73.91;95264.03;1784752;80;20999;-59
2021/07/01 06:54:39;;;;;;;6.78;2.40;;;;;;;21.00;73.42;95252.87;1784837;80;21520;-59
2021/07/01 06:57:14;;;;;;;4.85;2.90;;;;;;;21.27;72.01;95247.98;1782360;80;20971;-59
2021/07/01 06:59:41;;;;;;;3.25;2.27;;;;;;;21.27;70.66;95239.47;1784447;80;21026;-59
2021/07/01 07:02:12;;;;;;;4.78;2.60;;;;;;;21.29;70.93;95238.89;1784861;80;21007;-59
2021/07/01 07:04:41;;;;;;;5.25;2.30;;;;;;;21.34;70.95;95231.86;1785244;80;21528;-59
2021/07/01 07:07:08;;;;;;;4.70;2.50;;;;;;;21.41;71.00;95239.05;1784829;80;21456;-59
2021/07/01 07:09:34;;;;;;;3.40;2.47;;;;;;;21.51;71.82;95230.27;1785304;80;21444;-59
2021/07/01 07:12:01;;;;;;;2.62;2.15;;;;;;;21.60;70.13;95232.34;1784965;80;21034;-61
2021/07/01 07:27:53;;;;;;;5.87;3.00;;;;;;;23.32;66.28;95182.94;1860311;77;22445;-59
2021/07/01 07:30:22;;;;;;;8.05;3.67;;;;;;;23.08;66.17;95182.94;1832342;78;21513;-59
2021/07/01 07:32:50;;;;;;;5.00;3.33;;;;;;;23.16;66.85;95178.33;1832197;78;20995;-59
2021/07/01 07:35:17;;;;;;;5.22;3.20;;;;;;;23.06;67.94;95178.18;1832206;78;21018;-59
2021/07/01 07:37:44;;;;;;;7.62;3.15;;;;;;;22.90;68.63;95178.41;1832318;78;21043;-59
2021/07/01 07:40:12;;;;;;;4.30;3.30;;;;;;;22.91;68.66;95185.52;1831921;78;21020;-59
2021/07/01 07:42:45;;;;;;;6.10;3.20;;;;;;;23.00;67.84;95190.23;1832137;78;21027;-59
2021/07/01 07:45:14;;;;;;;8.18;3.02;;;;;;;23.14;68.06;95182.50;1832567;78;21516;-59
2021/07/01 07:47:41;;;;;;;6.28;2.77;;;;;;;23.33;67.69;95188.68;1832474;78;20972;-59
2021/07/01 07:50:11;;;;;;;3.00;2.70;;;;;;;23.41;65.84;95186.75;1832295;78;21012;-59
2021/07/01 07:52:49;;;;;;;5.37;3.37;;;;;;;23.52;67.21;95182.77;1832479;78;21572;-59
2021/07/01 07:55:19;;;;;;;7.87;3.30;;;;;;;23.63;65.85;95180.10;1829176;78;21055;-59
2021/07/01 07:57:52;;;;;;;4.40;3.02;;;;;;;23.52;65.51;95185.47;1832464;78;21039;-59
2021/07/01 08:00:20;;;;;;;4.70;3.05;;;;;;;23.47;65.93;95177.73;1831932;78;21032;-59
2021/07/01 08:02:57;;;;;;;3.17;2.70;;;;;;;23.58;66.55;95170.67;1832512;78;21564;-59
2021/07/01 08:05:28;;;;;;;7.60;3.30;;;;;;;23.65;65.74;95174.61;1832442;78;20968;-59
2021/07/01 08:07:56;;;;;;;4.47;3.17;;;;;;;23.74;65.49;95169.41;1832370;78;21557;-59
2021/07/01 08:10:30;;;;;;;4.95;3.35;;;;;;;23.87;65.03;95172.50;1832002;78;21011;-59
2021/07/01 08:13:01;;;;;;;6.03;3.40;;;;;;;24.01;65.94;95170.05;1832138;78;21043;-59
2021/07/01 08:15:27;;;;;;;4.83;3.00;;;;;;;24.25;66.47;95173.52;1831615;78;21036;-59
2021/07/01 08:17:53;;;;;;;3.90;3.27;;;;;;;24.48;67.49;95177.09;1832141;78;21023;-59
2021/07/01 08:20:23;;;;;;;4.17;3.40;;;;;;;24.55;64.30;95173.43;1832698;78;21016;-59
2021/07/01 08:22:53;;;;;;;5.58;3.37;;;;;;;24.64;65.29;95178.55;1832093;78;20984;-59
2021/07/01 08:25:23;;;;;;;4.92;3.47;;;;;;;24.77;63.44;95176.10;1832526;78;21117;-59
2021/07/01 08:27:52;;;;;;;5.83;3.17;;;;;;;24.88;64.15;95173.86;1831836;78;21098;-60
2021/07/01 08:30:23;;;;;;;6.10;3.45;;;;;;;24.91;60.92;95182.20;1831908;78;21022;-59
2021/07/01 08:32:57;;;;;;;6.35;3.67;;;;;;;24.72;61.25;95174.27;1831842;78;21058;-59
2021/07/01 08:35:27;;;;;;;8.00;3.47;;;;;;;24.90;62.51;95182.70;1831561;78;21099;-59
2021/07/01 08:38:00;;;;;;;7.33;4.03;;;;;;;25.14;63.49;95183.00;1831947;78;21008;-59
2021/07/01 08:40:34;;;;;;;4.17;3.27;;;;;;;25.40;64.07;95183.08;1831773;78;21054;-59
2021/07/01 08:43:04;;;;;;;7.08;3.37;;;;;;;25.64;62.78;95177.42;1830885;78;21064;-59
2021/07/01 08:46:00;;;;;;;7.75;3.33;;;;;;;25.84;59.65;95178.42;1831717;78;20956;-59
2021/07/01 08:48:32;;;;;;;7.00;3.85;;;;;;;25.71;57.97;95174.22;1831412;78;21011;-59
2021/07/01 08:50:59;;;;;;;9.80;4.12;;;;;;;25.51;59.76;95177.27;1830040;78;21020;-59
2021/07/01 08:53:50;;;;;;;7.30;3.75;;;;;;;25.40;59.68;95176.79;1831595;78;21007;-59
2021/07/01 08:56:18;;;;;;;5.53;3.60;;;;;;;25.37;62.39;95179.76;1831829;78;21052;-59
2021/07/01 08:58:47;;;;;;;6.08;3.92;;;;;;;25.68;60.66;95178.89;1831421;78;21015;-59
2021/07/01 09:01:19;;;;;;;6.78;3.90;;;;;;;25.74;59.97;95178.86;1831875;78;20960;-59
2021/07/01 09:03:48;;;;;;;10.50;4.05;;;;;;;25.78;59.76;95175.38;1831746;78;21039;-59
2021/07/01 09:06:24;;;;;;;9.38;4.40;;;;;;;25.66;59.31;95178.66;1831701;78;20944;-59
2021/07/01 09:08:53;;;;;;;10.05;4.22;;;;;;;25.39;59.63;95188.09;1831669;78;21067;-59
2021/07/01 09:11:21;;;;;;;9.88;4.60;;;;;;;25.16;59.71;95187.78;1831666;78;20973;-59
2021/07/01 09:13:50;;;;;;;14.03;4.97;;;;;;;25.03;60.89;95187.45;1831536;78;21060;-59
2021/07/01 09:16:18;;;;;;;9.35;4.67;;;;;;;24.98;60.68;95188.81;1831716;78;21011;-59
2021/07/01 09:18:46;;;;;;;13.08;4.80;;;;;;;24.91;62.22;95187.10;1831377;78;21530;-59
2021/07/01 09:21:14;;;;;;;5.83;4.30;;;;;;;25.01;63.65;95184.51;1831742;78;20984;-59
2021/07/01 09:23:46;;;;;;;7.30;4.72;;;;;;;25.36;60.51;95187.01;1831378;78;21520;-59
2021/07/01 09:26:21;;;;;;;8.30;4.30;;;;;;;25.81;61.64;95180.55;1830879;78;21000;-60
2021/07/01 09:28:50;;;;;;;9.58;4.40;;;;;;;25.96;57.19;95174.36;1831806;78;20969;-59
2021/07/01 09:31:20;;;;;;;7.75;4.00;;;;;;;26.02;58.89;95177.86;1831795;78;21042;-59
2021/07/01 09:33:50;;;;;;;6.80;3.72;;;;;;;26.35;59.85;95178.11;1831736;78;21003;-59
2021/07/01 09:36:20;;;;;;;8.25;3.50;;;;;;;26.51;54.47;95170.38;1831735;78;21588;-58
2021/07/01 09:38:48;;;;;;;10.68;4.08;;;;;;;26.56;52.84;95172.70;1831533;78;21012;-60
2021/07/01 09:41:17;;;;;;;6.58;2.95;;;;;;;26.78;53.77;95169.42;1831350;78;21019;-59
2021/07/01 09:43:47;;;;;;;6.80;2.90;;;;;;;26.96;49.66;95169.10;1796418;78;21048;-59
2021/07/01 09:46:22;;;;;;;6.55;3.40;;;;;;;26.59;48.05;95168.37;1831716;78;20972;-59
2021/07/01 09:48:53;;;;;;;4.95;3.60;;;;;;;26.64;52.30;95170.67;1831688;78;21015;-59
2021/07/01 09:51:21;;;;;;;6.65;3.50;;;;;;;26.87;52.85;95161.84;1831803;78;21437;-60
2021/07/01 09:53:51;;;;;;;7.62;2.92;;;;;;;27.20;52.22;95166.06;1831377;78;21067;-59
2021/07/01 09:56:38;;;;;;;4.78;2.90;;;;;;;27.49;52.15;95163.35;1831618;78;21019;-59
2021/07/01 09:59:16;;;;;;;4.17;3.15;;;;;;;27.58;49.27;95165.72;1831609;78;20991;-60
2021/07/01 10:01:43;;;;;;;5.50;2.70;;;;;;;27.72;49.91;95163.06;1830982;78;21038;-59
2021/07/01 10:04:10;;;;;;;6.05;3.05;;;;;;;27.71;46.32;95166.28;1831579;78;21031;-59
2021/07/01 10:06:37;;;;;;;10.38;2.65;;;;;;;27.81;49.39;95163.09;1831701;78;21046;-60
2021/07/01 10:09:06;;;;;;;5.67;2.92;;;;;;;27.67;45.94;95153.16;1826570;78;21047;-59
2021/07/01 10:11:43;;;;;;;7.62;3.30;;;;;;;27.84;48.58;95157.88;1831762;78;21000;-59
2021/07/01 10:14:13;;;;;;;5.35;3.20;;;;;;;27.85;47.65;95158.26;1831577;78;21024;-59
2021/07/01 10:16:40;;;;;;;4.35;2.45;;;;;;;27.96;47.34;95166.72;1831616;78;21035;-59
2021/07/01 10:19:08;;;;;;;6.95;3.15;;;;;;;27.87;44.85;95166.22;1831735;78;21481;-60
2021/07/01 10:21:38;;;;;;;5.95;2.80;;;;;;;27.99;45.98;95158.29;1831573;78;21035;-60
2021/07/01 10:24:14;;;;;;;6.12;3.00;;;;;;;28.13;48.12;95162.42;1831668;78;20984;-59
2021/07/01 10:26:50;;;;;;;4.45;2.72;;;;;;;28.26;45.69;95160.23;1832272;78;21089;-59
2021/07/01 10:29:19;;;;;;;7.20;3.20;;;;;;;27.81;46.16;95157.67;1834882;78;21016;-61
2021/07/01 10:32:06;;;;;;;8.60;3.25;;;;;;;27.39;46.29;95167.92;1835255;78;21011;-59
2021/07/01 10:34:29;;;;;;;4.70;2.77;;;;;;;27.03;47.87;95166.70;1833137;78;21058;-59
2021/07/01 10:37:25;;;;;;;6.53;3.10;;;;;;;27.05;48.83;95163.38;1835573;78;20984;-59
2021/07/01 10:39:52;;;;;;;5.33;3.20;;;;;;;26.83;48.40;95169.86;1834952;78;21461;-59
2021/07/01 10:42:19;;;;;;;4.85;2.90;;;;;;;26.42;48.91;95177.09;1835031;78;21277;-59
2021/07/01 10:44:47;;;;;;;7.33;3.58;;;;;;;26.09;50.98;95188.02;1835295;78;21469;-59
2021/07/01 10:47:32;;;;;;;10.08;3.62;;;;;;;25.71;51.74;95191.28;1835732;78;21007;-59
2021/07/01 10:50:00;;;;;;;7.05;4.20;;;;;;;25.38;52.32;95197.20;1834535;78;21516;-59
2021/07/01 10:52:44;;;;;;;8.73;4.10;;;;;;;25.28;54.38;95194.91;1835242;78;20996;-59
2021/07/01 10:55:12;;;;;;;11.20;4.05;;;;;;;25.21;54.19;95206.70;1835067;78;21008;-61
2021/07/01 10:57:56;;;;;;;8.45;4.00;;;;;;;25.00;54.29;95206.59;1835241;78;20967;-59
2021/07/01 11:13:09;;;;;;;4.80;2.87;;;;;;;27.90;46.95;95172.73;1860196;77;22200;-59
2021/07/01 11:16:04;;;;;;;5.95;3.00;;;;;;;27.52;46.45;95182.06;1832308;78;21004;-60
2021/07/01 11:18:42;;;;;;;7.17;4.37;;;;;;;27.13;47.91;95179.27;1832402;78;21016;-59
2021/07/01 11:21:19;;;;;;;8.98;3.50;;;;;;;26.45;50.25;95177.66;1831882;78;20988;-59
2021/07/01 11:23:53;;;;;;;6.37;3.50;;;;;;;26.15;49.62;95173.59;1832292;78;21020;-59
2021/07/01 11:26:32;;;;;;;6.87;3.85;;;;;;;26.02;51.72;95175.16;1800482;78;21043;-59
2021/07/01 11:29:07;;;;;;;6.30;3.80;;;;;;;26.11;51.43;95171.17;1832127;78;21020;-59
2021/07/01 11:31:43;;;;;;;8.60;3.08;;;;;;;26.57;47.94;95172.20;1831963;78;21016;-59
2021/07/01 11:34:18;;;;;;;8.23;3.08;;;;;;;27.02;46.54;95171.78;1830436;78;21012;-59
2021/07/01 11:36:51;;;;;;;5.65;2.83;;;;;;;27.20;46.41;95167.41;1830776;78;20984;-59
2021/07/01 11:39:24;;;;;;;3.77;2.62;;;;;;;27.58;46.75;95154.89;1831753;78;21028;-59
2021/07/01 11:41:51;;;;;;;6.10;2.75;;;;;;;27.93;47.22;95149.39;1832357;78;21023;-59
2021/07/01 11:44:21;;;;;;;3.92;3.08;;;;;;;28.33;45.42;95152.37;1832369;78;21035;-59
2021/07/01 11:46:49;;;;;;;6.78;2.58;;;;;;;28.31;42.96;95153.86;1832335;78;20976;-59
2021/07/01 11:49:18;;;;;;;6.40;3.00;;;;;;;28.42;44.99;95156.38;1832258;78;21043;-59
2021/07/01 11:51:45;;;;;;;6.08;2.98;;;;;;;28.50;42.35;95160.25;1832360;78;21047;-59
2021/07/01 11:54:12;;;;;;;5.58;3.12;;;;;;;28.23;42.91;95155.95;1832320;78;20980;-59
2021/07/01 11:57:12;;;;;;;5.55;2.92;;;;;;;28.52;45.35;95167.23;1832383;78;21063;-62
2021/07/01 11:59:13;;;;;;;5.50;2.42;;;;;;;28.73;43.33;95173.81;1825649;78;21039;-59
2021/07/01 12:01:41;;;;;;;8.10;2.65;;;;;;;28.56;43.34;95176.80;1832391;78;21019;-59
2021/07/01 12:04:09;;;;;;;4.78;2.40;;;;;;;28.68;42.56;95184.27;1832304;78;20944;-59
2021/07/01 12:06:46;;;;;;;6.92;2.52;;;;;;;28.87;41.74;95176.00;1832318;78;21007;-59
2021/07/01 12:09:14;;;;;;;6.25;2.40;;;;;;;28.97;44.55;95184.62;1832436;78;20988;-60
2021/07/01 12:12:06;;;;;;;4.35;2.05;;;;;;;29.36;41.60;95185.28;1831983;78;21073;-60
2021/07/01 12:14:36;;;;;;;4.62;2.47;;;;;;;29.62;38.09;95174.48;1832142;78;21007;-60
2021/07/01 12:17:04;;;;;;;3.30;2.10;;;;;;;29.98;37.90;95189.44;1831418;78;20999;-59
2021/07/01 12:19:51;;;;;;;4.33;1.85;;;;;;;30.23;38.65;95176.03;1831800;78;20996;-60
2021/07/01 12:22:47;;;;;;;5.00;1.80;;;;;;;30.66;38.72;95183.82;1831778;78;21551;-60
2021/07/01 12:25:28;;;;;;;8.88;1.95;;;;;;;30.26;34.98;95180.67;1831638;78;21019;-60
2021/07/01 12:28:11;;;;;;;4.25;1.80;;;;;;;29.91;35.20;95169.32;1795568;78;21028;-60
2021/07/01 12:31:03;;;;;;;3.60;1.82;;;;;;;29.86;35.62;95175.73;1831740;78;21034;-60
2021/07/01 12:33:51;;;;;;;4.85;1.80;;;;;;;30.71;37.96;95180.11;1831738;78;21091;-59
2021/07/01 12:36:35;;;;;;;5.90;1.80;;;;;;;31.00;36.08;95179.77;1831826;78;21453;-60
2021/07/01 12:39:15;;;;;;;3.60;1.77;;;;;;;31.65;35.96;95170.92;1831501;78;21031;-59